Aviation Digital Data Service (ADDS)

Output produced by TAFs form (1352 UTC 27 February 2017)
found at http://www.aviationweather.gov/adds/tafs/
 
KRIC 271139Z 2712/2812 16005KT P6SM BKN150 
     FM271700 19010KT P6SM BKN120 
     FM280000 14003KT P6SM BKN100